sensor_id;sensor_type;location;lat;lon;timestamp;temperature;humidity
25973;DHT22;13765;51.166;4.466;2023-02-28T00:01:24;0.90;99.90
25973;DHT22;13765;51.166;4.466;2023-02-28T00:03:50;0.80;99.90
25973;DHT22;13765;51.166;4.466;2023-02-28T00:06:16;0.80;99.90
25973;DHT22;13765;51.166;4.466;2023-02-28T00:08:42;0.80;99.90
25973;DHT22;13765;51.166;4.466;2023-02-28T00:11:13;0.80;99.90
25973;DHT22;13765;51.166;4.466;2023-02-28T00:13:44;0.80;99.90
25973;DHT22;13765;51.166;4.466;2023-02-28T00:16:17;0.70;99.90
25973;DHT22;13765;51.166;4.466;2023-02-28T00:18:46;0.70;99.90
25973;DHT22;13765;51.166;4.466;2023-02-28T00:21:16;0.60;99.90
25973;DHT22;13765;51.166;4.466;2023-02-28T00:23:42;0.70;99.90
25973;DHT22;13765;51.166;4.466;2023-02-28T00:26:09;0.70;99.90
25973;DHT22;13765;51.166;4.466;2023-02-28T00:28:40;0.60;99.90
25973;DHT22;13765;51.166;4.466;2023-02-28T00:31:10;0.60;99.90
25973;DHT22;13765;51.166;4.466;2023-02-28T00:33:36;0.70;99.90
25973;DHT22;13765;51.166;4.466;2023-02-28T00:36:09;0.70;99.90
25973;DHT22;13765;51.166;4.466;2023-02-28T00:38:37;0.60;99.90
25973;DHT22;13765;51.166;4.466;2023-02-28T00:41:10;0.80;99.90
25973;DHT22;13765;51.166;4.466;2023-02-28T00:43:38;0.60;99.90
25973;DHT22;13765;51.166;4.466;2023-02-28T00:46:04;0.60;99.90
25973;DHT22;13765;51.166;4.466;2023-02-28T00:48:33;0.60;99.90
25973;DHT22;13765;51.166;4.466;2023-02-28T00:50:59;0.60;99.90
25973;DHT22;13765;51.166;4.466;2023-02-28T00:53:25;0.50;99.90
25973;DHT22;13765;51.166;4.466;2023-02-28T00:55:53;0.50;99.90
25973;DHT22;13765;51.166;4.466;2023-02-28T00:58:18;0.50;99.90
25973;DHT22;13765;51.166;4.466;2023-02-28T01:00:45;0.50;99.90
25973;DHT22;13765;51.166;4.466;2023-02-28T01:03:15;0.50;99.90
25973;DHT22;13765;51.166;4.466;2023-02-28T01:05:46;0.50;99.90
25973;DHT22;13765;51.166;4.466;2023-02-28T01:08:12;0.50;99.90
25973;DHT22;13765;51.166;4.466;2023-02-28T01:10:39;0.50;99.90
25973;DHT22;13765;51.166;4.466;2023-02-28T01:13:05;0.50;99.90
25973;DHT22;13765;51.166;4.466;2023-02-28T01:15:31;0.50;99.90
25973;DHT22;13765;51.166;4.466;2023-02-28T01:18:00;0.50;99.90
25973;DHT22;13765;51.166;4.466;2023-02-28T01:20:25;0.60;99.90
25973;DHT22;13765;51.166;4.466;2023-02-28T01:23:00;0.60;99.90
25973;DHT22;13765;51.166;4.466;2023-02-28T01:25:25;0.40;99.90
25973;DHT22;13765;51.166;4.466;2023-02-28T01:27:53;0.40;99.90
25973;DHT22;13765;51.166;4.466;2023-02-28T01:30:24;0.40;99.90
25973;DHT22;13765;51.166;4.466;2023-02-28T01:32:52;0.40;99.90
25973;DHT22;13765;51.166;4.466;2023-02-28T01:35:19;0.40;99.90
25973;DHT22;13765;51.166;4.466;2023-02-28T01:37:44;0.40;99.90
25973;DHT22;13765;51.166;4.466;2023-02-28T01:40:14;0.30;99.90
25973;DHT22;13765;51.166;4.466;2023-02-28T01:42:40;0.30;99.90
25973;DHT22;13765;51.166;4.466;2023-02-28T01:48:03;0.30;99.90
25973;DHT22;13765;51.166;4.466;2023-02-28T01:50:36;0.30;99.90
25973;DHT22;13765;51.166;4.466;2023-02-28T01:53:10;0.30;99.90
25973;DHT22;13765;51.166;4.466;2023-02-28T01:55:37;0.20;99.90
25973;DHT22;13765;51.166;4.466;2023-02-28T01:58:08;0.10;99.90
25973;DHT22;13765;51.166;4.466;2023-02-28T02:00:37;0.20;99.90
25973;DHT22;13765;51.166;4.466;2023-02-28T02:03:09;0.20;99.90
25973;DHT22;13765;51.166;4.466;2023-02-28T02:05:41;0.20;99.90
25973;DHT22;13765;51.166;4.466;2023-02-28T02:08:25;0.20;99.90
25973;DHT22;13765;51.166;4.466;2023-02-28T02:10:56;0.10;99.90
25973;DHT22;13765;51.166;4.466;2023-02-28T02:13:50;0.10;99.90
25973;DHT22;13765;51.166;4.466;2023-02-28T02:32:57;0.10;99.90
25973;DHT22;13765;51.166;4.466;2023-02-28T02:35:49;0.10;99.90
25973;DHT22;13765;51.166;4.466;2023-02-28T02:38:33;0.00;99.90
25973;DHT22;13765;51.166;4.466;2023-02-28T02:43:43;0.10;99.90
25973;DHT22;13765;51.166;4.466;2023-02-28T02:46:17;0.10;99.90
25973;DHT22;13765;51.166;4.466;2023-02-28T02:48:45;0.00;99.90
25973;DHT22;13765;51.166;4.466;2023-02-28T02:51:15;0.00;99.90
25973;DHT22;13765;51.166;4.466;2023-02-28T02:54:08;0.10;99.90
25973;DHT22;13765;51.166;4.466;2023-02-28T02:56:34;0.10;99.90
25973;DHT22;13765;51.166;4.466;2023-02-28T02:59:08;0.00;99.90
25973;DHT22;13765;51.166;4.466;2023-02-28T03:01:35;0.00;99.90
25973;DHT22;13765;51.166;4.466;2023-02-28T03:04:06;0.00;99.90
25973;DHT22;13765;51.166;4.466;2023-02-28T03:06:32;-0.10;99.90
25973;DHT22;13765;51.166;4.466;2023-02-28T03:09:02;-0.10;99.90
25973;DHT22;13765;51.166;4.466;2023-02-28T03:11:27;0.00;99.90
25973;DHT22;13765;51.166;4.466;2023-02-28T03:14:04;0.00;99.90
25973;DHT22;13765;51.166;4.466;2023-02-28T03:25:32;0.00;99.90
25973;DHT22;13765;51.166;4.466;2023-02-28T03:28:04;0.00;99.90
25973;DHT22;13765;51.166;4.466;2023-02-28T03:30:51;0.00;99.90
25973;DHT22;13765;51.166;4.466;2023-02-28T03:33:39;0.00;99.90
25973;DHT22;13765;51.166;4.466;2023-02-28T03:36:17;0.00;99.90
25973;DHT22;13765;51.166;4.466;2023-02-28T03:38:51;0.00;99.90
25973;DHT22;13765;51.166;4.466;2023-02-28T03:43:55;0.00;99.90
25973;DHT22;13765;51.166;4.466;2023-02-28T03:46:24;0.00;99.90
25973;DHT22;13765;51.166;4.466;2023-02-28T03:48:57;-0.10;99.90
25973;DHT22;13765;51.166;4.466;2023-02-28T03:51:29;0.00;99.90
25973;DHT22;13765;51.166;4.466;2023-02-28T03:54:04;0.00;99.90
25973;DHT22;13765;51.166;4.466;2023-02-28T03:56:34;0.00;99.90
25973;DHT22;13765;51.166;4.466;2023-02-28T03:59:20;0.10;99.90
25973;DHT22;13765;51.166;4.466;2023-02-28T04:01:50;0.10;99.90
25973;DHT22;13765;51.166;4.466;2023-02-28T04:04:19;0.10;99.90
25973;DHT22;13765;51.166;4.466;2023-02-28T04:06:45;0.10;99.90
25973;DHT22;13765;51.166;4.466;2023-02-28T04:09:12;0.20;99.90
25973;DHT22;13765;51.166;4.466;2023-02-28T04:11:52;0.20;99.90
25973;DHT22;13765;51.166;4.466;2023-02-28T04:14:20;0.20;99.90
25973;DHT22;13765;51.166;4.466;2023-02-28T04:16:46;0.30;99.90
25973;DHT22;13765;51.166;4.466;2023-02-28T04:19:14;0.40;99.90
25973;DHT22;13765;51.166;4.466;2023-02-28T04:24:13;0.50;99.90
25973;DHT22;13765;51.166;4.466;2023-02-28T04:26:41;0.60;99.90
25973;DHT22;13765;51.166;4.466;2023-02-28T04:29:09;0.60;99.90
25973;DHT22;13765;51.166;4.466;2023-02-28T04:31:39;0.70;99.90
25973;DHT22;13765;51.166;4.466;2023-02-28T04:34:05;0.70;99.90
25973;DHT22;13765;51.166;4.466;2023-02-28T04:36:33;0.70;99.90
25973;DHT22;13765;51.166;4.466;2023-02-28T04:39:02;0.80;99.90
25973;DHT22;13765;51.166;4.466;2023-02-28T04:41:30;0.80;99.90
25973;DHT22;13765;51.166;4.466;2023-02-28T04:43:55;0.90;99.90
25973;DHT22;13765;51.166;4.466;2023-02-28T04:46:21;1.00;99.90
25973;DHT22;13765;51.166;4.466;2023-02-28T04:48:47;1.00;99.90
25973;DHT22;13765;51.166;4.466;2023-02-28T04:51:15;1.20;99.90
25973;DHT22;13765;51.166;4.466;2023-02-28T04:53:41;1.20;99.90
25973;DHT22;13765;51.166;4.466;2023-02-28T04:56:09;1.30;99.90
25973;DHT22;13765;51.166;4.466;2023-02-28T04:58:39;1.30;99.90
25973;DHT22;13765;51.166;4.466;2023-02-28T05:03:44;1.40;99.90
25973;DHT22;13765;51.166;4.466;2023-02-28T05:06:11;1.40;99.90
25973;DHT22;13765;51.166;4.466;2023-02-28T05:08:37;1.40;99.90
25973;DHT22;13765;51.166;4.466;2023-02-28T05:11:07;1.40;99.90
25973;DHT22;13765;51.166;4.466;2023-02-28T05:13:37;1.50;99.90
25973;DHT22;13765;51.166;4.466;2023-02-28T05:16:03;1.50;99.90
25973;DHT22;13765;51.166;4.466;2023-02-28T05:18:31;1.70;99.90
25973;DHT22;13765;51.166;4.466;2023-02-28T05:20:57;1.60;99.90
25973;DHT22;13765;51.166;4.466;2023-02-28T05:23:25;1.60;99.90
25973;DHT22;13765;51.166;4.466;2023-02-28T05:25:51;1.60;99.90
25973;DHT22;13765;51.166;4.466;2023-02-28T05:28:17;1.70;99.90
25973;DHT22;13765;51.166;4.466;2023-02-28T05:30:43;1.70;99.90
25973;DHT22;13765;51.166;4.466;2023-02-28T05:33:11;1.70;99.90
25973;DHT22;13765;51.166;4.466;2023-02-28T05:35:40;1.60;99.90
25973;DHT22;13765;51.166;4.466;2023-02-28T05:38:10;1.70;99.90
25973;DHT22;13765;51.166;4.466;2023-02-28T05:40:38;1.80;99.90
25973;DHT22;13765;51.166;4.466;2023-02-28T05:43:07;1.90;99.90
25973;DHT22;13765;51.166;4.466;2023-02-28T05:45:37;1.90;99.90
25973;DHT22;13765;51.166;4.466;2023-02-28T05:48:03;1.90;99.90
25973;DHT22;13765;51.166;4.466;2023-02-28T05:50:33;2.00;99.90
25973;DHT22;13765;51.166;4.466;2023-02-28T05:53:01;2.00;99.90
25973;DHT22;13765;51.166;4.466;2023-02-28T05:55:27;2.00;99.90
25973;DHT22;13765;51.166;4.466;2023-02-28T05:57:57;2.00;99.90
25973;DHT22;13765;51.166;4.466;2023-02-28T06:00:23;1.90;99.90
25973;DHT22;13765;51.166;4.466;2023-02-28T06:02:49;2.00;99.90
25973;DHT22;13765;51.166;4.466;2023-02-28T06:05:17;1.90;99.90
25973;DHT22;13765;51.166;4.466;2023-02-28T06:07:43;2.00;99.90
25973;DHT22;13765;51.166;4.466;2023-02-28T06:10:12;2.00;99.90
25973;DHT22;13765;51.166;4.466;2023-02-28T06:12:41;2.00;99.90
25973;DHT22;13765;51.166;4.466;2023-02-28T06:15:11;2.00;99.90
25973;DHT22;13765;51.166;4.466;2023-02-28T06:17:37;2.00;99.90
25973;DHT22;13765;51.166;4.466;2023-02-28T06:20:05;2.10;99.90
25973;DHT22;13765;51.166;4.466;2023-02-28T06:22:31;2.20;99.90
25973;DHT22;13765;51.166;4.466;2023-02-28T06:24:57;2.20;99.90
25973;DHT22;13765;51.166;4.466;2023-02-28T06:27:23;2.20;99.90
25973;DHT22;13765;51.166;4.466;2023-02-28T06:29:48;2.30;99.90
25973;DHT22;13765;51.166;4.466;2023-02-28T06:32:14;2.20;99.90
25973;DHT22;13765;51.166;4.466;2023-02-28T06:34:44;2.30;99.90
25973;DHT22;13765;51.166;4.466;2023-02-28T06:37:13;2.30;99.90
25973;DHT22;13765;51.166;4.466;2023-02-28T06:39:39;2.30;99.90
25973;DHT22;13765;51.166;4.466;2023-02-28T06:42:05;2.40;99.90
25973;DHT22;13765;51.166;4.466;2023-02-28T06:44:33;2.30;99.90
25973;DHT22;13765;51.166;4.466;2023-02-28T06:47:04;2.40;99.90
25973;DHT22;13765;51.166;4.466;2023-02-28T06:49:32;2.40;99.90
25973;DHT22;13765;51.166;4.466;2023-02-28T06:52:02;2.40;99.90
25973;DHT22;13765;51.166;4.466;2023-02-28T06:54:28;2.50;99.90
25973;DHT22;13765;51.166;4.466;2023-02-28T06:56:57;2.40;99.90
25973;DHT22;13765;51.166;4.466;2023-02-28T06:59:23;2.50;99.90
25973;DHT22;13765;51.166;4.466;2023-02-28T07:01:51;2.60;99.90
25973;DHT22;13765;51.166;4.466;2023-02-28T07:04:17;2.50;99.90
25973;DHT22;13765;51.166;4.466;2023-02-28T07:06:45;2.70;99.90
25973;DHT22;13765;51.166;4.466;2023-02-28T07:09:23;2.60;99.90
25973;DHT22;13765;51.166;4.466;2023-02-28T07:11:51;2.70;99.90
25973;DHT22;13765;51.166;4.466;2023-02-28T07:14:17;2.80;99.90
25973;DHT22;13765;51.166;4.466;2023-02-28T07:16:45;2.80;99.90
25973;DHT22;13765;51.166;4.466;2023-02-28T07:19:11;2.90;99.90
25973;DHT22;13765;51.166;4.466;2023-02-28T07:21:39;2.90;99.90
25973;DHT22;13765;51.166;4.466;2023-02-28T07:24:07;2.90;99.90
25973;DHT22;13765;51.166;4.466;2023-02-28T07:26:36;2.90;99.90
25973;DHT22;13765;51.166;4.466;2023-02-28T07:29:03;3.00;99.90
25973;DHT22;13765;51.166;4.466;2023-02-28T07:31:29;3.10;99.90
25973;DHT22;13765;51.166;4.466;2023-02-28T07:33:55;3.10;99.90
25973;DHT22;13765;51.166;4.466;2023-02-28T07:36:27;3.20;99.90
25973;DHT22;13765;51.166;4.466;2023-02-28T07:38:53;3.30;99.90
25973;DHT22;13765;51.166;4.466;2023-02-28T07:41:24;3.40;99.90
25973;DHT22;13765;51.166;4.466;2023-02-28T07:43:55;3.40;99.90
25973;DHT22;13765;51.166;4.466;2023-02-28T07:46:26;3.40;99.90
25973;DHT22;13765;51.166;4.466;2023-02-28T07:48:52;3.50;99.90
25973;DHT22;13765;51.166;4.466;2023-02-28T07:51:19;3.50;99.90
25973;DHT22;13765;51.166;4.466;2023-02-28T07:53:46;3.50;99.90
25973;DHT22;13765;51.166;4.466;2023-02-28T07:56:14;3.60;99.90
25973;DHT22;13765;51.166;4.466;2023-02-28T07:58:39;3.60;99.90
25973;DHT22;13765;51.166;4.466;2023-02-28T08:01:07;3.70;99.90
25973;DHT22;13765;51.166;4.466;2023-02-28T08:03:34;3.70;99.90
25973;DHT22;13765;51.166;4.466;2023-02-28T08:06:03;3.80;99.90
25973;DHT22;13765;51.166;4.466;2023-02-28T08:08:29;3.80;99.90
25973;DHT22;13765;51.166;4.466;2023-02-28T08:11:01;3.90;99.90
25973;DHT22;13765;51.166;4.466;2023-02-28T08:13:30;4.00;99.90
25973;DHT22;13765;51.166;4.466;2023-02-28T08:15:56;4.10;99.90
25973;DHT22;13765;51.166;4.466;2023-02-28T08:18:24;4.20;99.90
25973;DHT22;13765;51.166;4.466;2023-02-28T08:20:52;4.30;99.90
25973;DHT22;13765;51.166;4.466;2023-02-28T08:23:18;4.30;99.90
25973;DHT22;13765;51.166;4.466;2023-02-28T08:25:43;4.20;99.90
25973;DHT22;13765;51.166;4.466;2023-02-28T08:28:13;4.10;99.90
25973;DHT22;13765;51.166;4.466;2023-02-28T08:30:39;4.10;99.90
25973;DHT22;13765;51.166;4.466;2023-02-28T08:33:06;4.20;99.90
25973;DHT22;13765;51.166;4.466;2023-02-28T08:35:36;4.20;99.90
25973;DHT22;13765;51.166;4.466;2023-02-28T08:38:02;4.30;99.90
25973;DHT22;13765;51.166;4.466;2023-02-28T08:40:27;4.30;99.90
25973;DHT22;13765;51.166;4.466;2023-02-28T08:42:53;4.20;99.90
25973;DHT22;13765;51.166;4.466;2023-02-28T08:45:21;4.10;99.90
25973;DHT22;13765;51.166;4.466;2023-02-28T08:47:46;4.20;99.90
25973;DHT22;13765;51.166;4.466;2023-02-28T08:50:12;4.30;99.90
25973;DHT22;13765;51.166;4.466;2023-02-28T08:52:43;4.40;99.90
25973;DHT22;13765;51.166;4.466;2023-02-28T08:55:10;4.40;99.90
25973;DHT22;13765;51.166;4.466;2023-02-28T08:57:36;4.60;99.90
25973;DHT22;13765;51.166;4.466;2023-02-28T09:00:03;4.70;99.90
25973;DHT22;13765;51.166;4.466;2023-02-28T09:02:30;4.90;99.90
25973;DHT22;13765;51.166;4.466;2023-02-28T09:04:57;5.10;99.90
25973;DHT22;13765;51.166;4.466;2023-02-28T09:07:23;5.00;99.90
25973;DHT22;13765;51.166;4.466;2023-02-28T09:09:51;4.90;99.90
25973;DHT22;13765;51.166;4.466;2023-02-28T09:12:34;4.90;99.90
25973;DHT22;13765;51.166;4.466;2023-02-28T09:15:03;4.80;99.90
25973;DHT22;13765;51.166;4.466;2023-02-28T09:17:29;4.80;99.90
25973;DHT22;13765;51.166;4.466;2023-02-28T09:19:57;4.80;99.90
25973;DHT22;13765;51.166;4.466;2023-02-28T09:22:22;4.80;99.90
25973;DHT22;13765;51.166;4.466;2023-02-28T09:24:50;4.80;99.90
25973;DHT22;13765;51.166;4.466;2023-02-28T09:27:16;4.80;99.90
25973;DHT22;13765;51.166;4.466;2023-02-28T09:29:42;4.80;99.90
25973;DHT22;13765;51.166;4.466;2023-02-28T09:32:08;4.80;99.90
25973;DHT22;13765;51.166;4.466;2023-02-28T09:34:36;5.10;99.90
25973;DHT22;13765;51.166;4.466;2023-02-28T09:37:02;5.20;99.90
25973;DHT22;13765;51.166;4.466;2023-02-28T09:39:30;5.30;99.90
25973;DHT22;13765;51.166;4.466;2023-02-28T09:41:57;5.40;99.90
25973;DHT22;13765;51.166;4.466;2023-02-28T09:44:31;5.40;99.90
25973;DHT22;13765;51.166;4.466;2023-02-28T09:47:18;5.50;99.90
25973;DHT22;13765;51.166;4.466;2023-02-28T09:49:53;5.70;99.90
25973;DHT22;13765;51.166;4.466;2023-02-28T09:52:25;5.80;99.90
25973;DHT22;13765;51.166;4.466;2023-02-28T09:54:55;5.90;99.90
25973;DHT22;13765;51.166;4.466;2023-02-28T09:57:37;5.90;99.90
25973;DHT22;13765;51.166;4.466;2023-02-28T10:00:33;5.90;99.90
25973;DHT22;13765;51.166;4.466;2023-02-28T10:05:43;6.10;99.90
25973;DHT22;13765;51.166;4.466;2023-02-28T10:08:41;6.20;99.90
25973;DHT22;13765;51.166;4.466;2023-02-28T10:11:11;6.20;99.90
25973;DHT22;13765;51.166;4.466;2023-02-28T10:13:51;6.20;99.90
25973;DHT22;13765;51.166;4.466;2023-02-28T10:16:23;6.30;99.90
25973;DHT22;13765;51.166;4.466;2023-02-28T10:18:55;6.30;99.90
25973;DHT22;13765;51.166;4.466;2023-02-28T10:21:46;6.20;99.90
25973;DHT22;13765;51.166;4.466;2023-02-28T10:27:06;6.00;99.90
25973;DHT22;13765;51.166;4.466;2023-02-28T10:29:47;6.00;99.90
25973;DHT22;13765;51.166;4.466;2023-02-28T10:32:19;6.00;99.90
25973;DHT22;13765;51.166;4.466;2023-02-28T10:35:36;6.10;99.90
25973;DHT22;13765;51.166;4.466;2023-02-28T10:37:46;6.20;99.90
25973;DHT22;13765;51.166;4.466;2023-02-28T10:40:33;6.30;99.90
25973;DHT22;13765;51.166;4.466;2023-02-28T10:43:07;6.30;99.90
25973;DHT22;13765;51.166;4.466;2023-02-28T10:46:31;6.30;99.90
25973;DHT22;13765;51.166;4.466;2023-02-28T10:49:11;6.40;99.90
25973;DHT22;13765;51.166;4.466;2023-02-28T10:51:39;6.40;99.90
25973;DHT22;13765;51.166;4.466;2023-02-28T10:54:13;6.20;99.90
25973;DHT22;13765;51.166;4.466;2023-02-28T10:56:43;6.10;99.90
25973;DHT22;13765;51.166;4.466;2023-02-28T11:04:20;6.00;99.90
25973;DHT22;13765;51.166;4.466;2023-02-28T11:07:20;5.90;99.90
25973;DHT22;13765;51.166;4.466;2023-02-28T11:09:52;5.90;99.90
25973;DHT22;13765;51.166;4.466;2023-02-28T11:12:23;6.00;99.90
25973;DHT22;13765;51.166;4.466;2023-02-28T11:15:41;6.20;99.90
25973;DHT22;13765;51.166;4.466;2023-02-28T11:17:44;6.30;99.90
25973;DHT22;13765;51.166;4.466;2023-02-28T11:20:23;5.90;99.90
25973;DHT22;13765;51.166;4.466;2023-02-28T11:22:51;6.00;99.90
25973;DHT22;13765;51.166;4.466;2023-02-28T11:25:25;5.90;99.90
25973;DHT22;13765;51.166;4.466;2023-02-28T11:27:58;5.90;99.90
25973;DHT22;13765;51.166;4.466;2023-02-28T11:30:40;6.10;99.90
25973;DHT22;13765;51.166;4.466;2023-02-28T11:35:51;6.10;99.90
25973;DHT22;13765;51.166;4.466;2023-02-28T11:38:18;6.20;99.90
25973;DHT22;13765;51.166;4.466;2023-02-28T12:11:13;7.00;99.90
25973;DHT22;13765;51.166;4.466;2023-02-28T12:16:37;7.20;99.90
25973;DHT22;13765;51.166;4.466;2023-02-28T12:27:03;7.00;99.90
25973;DHT22;13765;51.166;4.466;2023-02-28T12:29:48;7.00;99.90
25973;DHT22;13765;51.166;4.466;2023-02-28T12:32:34;7.00;99.90
25973;DHT22;13765;51.166;4.466;2023-02-28T12:40:13;6.90;99.90
25973;DHT22;13765;51.166;4.466;2023-02-28T12:42:43;7.00;99.90
25973;DHT22;13765;51.166;4.466;2023-02-28T12:45:13;6.90;99.90
25973;DHT22;13765;51.166;4.466;2023-02-28T12:47:45;7.00;99.90
25973;DHT22;13765;51.166;4.466;2023-02-28T12:50:15;7.10;99.90
25973;DHT22;13765;51.166;4.466;2023-02-28T12:58:11;6.90;99.90
25973;DHT22;13765;51.166;4.466;2023-02-28T13:01:03;6.70;99.90
25973;DHT22;13765;51.166;4.466;2023-02-28T13:03:48;6.70;99.90
25973;DHT22;13765;51.166;4.466;2023-02-28T13:11:47;6.70;99.90
25973;DHT22;13765;51.166;4.466;2023-02-28T13:14:35;6.60;99.90
25973;DHT22;13765;51.166;4.466;2023-02-28T13:19:59;6.70;99.90
25973;DHT22;13765;51.166;4.466;2023-02-28T13:24:55;6.50;99.90
25973;DHT22;13765;51.166;4.466;2023-02-28T13:29:53;6.60;99.90
25973;DHT22;13765;51.166;4.466;2023-02-28T13:40:06;6.30;99.90
25973;DHT22;13765;51.166;4.466;2023-02-28T13:42:47;6.20;99.90
25973;DHT22;13765;51.166;4.466;2023-02-28T13:47:57;6.20;99.90
25973;DHT22;13765;51.166;4.466;2023-02-28T14:06:54;6.40;99.90
25973;DHT22;13765;51.166;4.466;2023-02-28T14:09:35;6.40;99.90
25973;DHT22;13765;51.166;4.466;2023-02-28T14:17:55;6.30;99.90
25973;DHT22;13765;51.166;4.466;2023-02-28T14:20:22;6.30;99.90
25973;DHT22;13765;51.166;4.466;2023-02-28T14:31:08;6.30;99.90
25973;DHT22;13765;51.166;4.466;2023-02-28T14:36:36;6.40;99.90
25973;DHT22;13765;51.166;4.466;2023-02-28T14:41:40;6.40;99.90
25973;DHT22;13765;51.166;4.466;2023-02-28T14:46:56;6.50;99.90
25973;DHT22;13765;51.166;4.466;2023-02-28T14:49:36;6.50;99.90
25973;DHT22;13765;51.166;4.466;2023-02-28T14:54:38;6.50;99.90
25973;DHT22;13765;51.166;4.466;2023-02-28T14:57:04;6.60;99.90
25973;DHT22;13765;51.166;4.466;2023-02-28T14:59:33;6.80;99.90
25973;DHT22;13765;51.166;4.466;2023-02-28T15:04:59;6.90;99.90
25973;DHT22;13765;51.166;4.466;2023-02-28T15:07:25;6.90;99.90
25973;DHT22;13765;51.166;4.466;2023-02-28T15:13:26;6.70;99.90
25973;DHT22;13765;51.166;4.466;2023-02-28T15:16:17;6.70;99.90
25973;DHT22;13765;51.166;4.466;2023-02-28T15:18:54;6.70;99.90
25973;DHT22;13765;51.166;4.466;2023-02-28T15:21:33;6.70;99.90
25973;DHT22;13765;51.166;4.466;2023-02-28T15:24:02;6.80;99.90
25973;DHT22;13765;51.166;4.466;2023-02-28T15:26:42;6.80;99.90
25973;DHT22;13765;51.166;4.466;2023-02-28T15:29:17;6.70;99.90
25973;DHT22;13765;51.166;4.466;2023-02-28T15:31:48;6.50;99.90
25973;DHT22;13765;51.166;4.466;2023-02-28T15:34:41;6.50;99.90
25973;DHT22;13765;51.166;4.466;2023-02-28T15:37:37;6.40;99.90
25973;DHT22;13765;51.166;4.466;2023-02-28T15:40:31;6.40;99.90
25973;DHT22;13765;51.166;4.466;2023-02-28T15:43:13;6.40;99.90
25973;DHT22;13765;51.166;4.466;2023-02-28T15:45:47;6.30;99.90
25973;DHT22;13765;51.166;4.466;2023-02-28T15:50:46;6.30;99.90
25973;DHT22;13765;51.166;4.466;2023-02-28T15:53:18;6.30;99.90
25973;DHT22;13765;51.166;4.466;2023-02-28T15:55:45;6.40;99.90
25973;DHT22;13765;51.166;4.466;2023-02-28T15:58:22;6.30;99.90
25973;DHT22;13765;51.166;4.466;2023-02-28T16:01:03;6.30;99.90
25973;DHT22;13765;51.166;4.466;2023-02-28T16:03:42;6.20;99.90
25973;DHT22;13765;51.166;4.466;2023-02-28T16:08:52;6.20;99.90
25973;DHT22;13765;51.166;4.466;2023-02-28T16:11:20;6.20;99.90
25973;DHT22;13765;51.166;4.466;2023-02-28T16:13:46;6.30;99.90
25973;DHT22;13765;51.166;4.466;2023-02-28T16:16:16;6.30;99.90
25973;DHT22;13765;51.166;4.466;2023-02-28T16:18:42;6.30;99.90
25973;DHT22;13765;51.166;4.466;2023-02-28T16:21:11;6.20;99.90
25973;DHT22;13765;51.166;4.466;2023-02-28T16:23:36;6.30;99.90
25973;DHT22;13765;51.166;4.466;2023-02-28T16:26:05;6.30;99.90
25973;DHT22;13765;51.166;4.466;2023-02-28T16:28:36;6.20;99.90
25973;DHT22;13765;51.166;4.466;2023-02-28T16:31:05;6.20;99.90
25973;DHT22;13765;51.166;4.466;2023-02-28T16:33:33;6.20;99.90
25973;DHT22;13765;51.166;4.466;2023-02-28T16:36:00;6.10;99.90
25973;DHT22;13765;51.166;4.466;2023-02-28T16:38:26;6.00;99.90
25973;DHT22;13765;51.166;4.466;2023-02-28T16:41:00;6.00;99.90
25973;DHT22;13765;51.166;4.466;2023-02-28T16:43:26;6.00;99.90
25973;DHT22;13765;51.166;4.466;2023-02-28T16:45:56;6.00;99.90
25973;DHT22;13765;51.166;4.466;2023-02-28T16:48:25;5.90;99.90
25973;DHT22;13765;51.166;4.466;2023-02-28T16:50:53;5.90;99.90
25973;DHT22;13765;51.166;4.466;2023-02-28T16:53:21;5.90;99.90
25973;DHT22;13765;51.166;4.466;2023-02-28T16:55:49;5.90;99.90
25973;DHT22;13765;51.166;4.466;2023-02-28T16:58:16;5.90;99.90
25973;DHT22;13765;51.166;4.466;2023-02-28T17:00:42;5.90;99.90
25973;DHT22;13765;51.166;4.466;2023-02-28T17:03:29;5.90;99.90
25973;DHT22;13765;51.166;4.466;2023-02-28T17:05:55;5.70;99.90
25973;DHT22;13765;51.166;4.466;2023-02-28T17:08:21;5.60;99.90
25973;DHT22;13765;51.166;4.466;2023-02-28T17:10:48;5.50;99.90
25973;DHT22;13765;51.166;4.466;2023-02-28T17:13:14;5.50;99.90
25973;DHT22;13765;51.166;4.466;2023-02-28T17:15:44;5.40;99.90
25973;DHT22;13765;51.166;4.466;2023-02-28T17:18:15;5.30;99.90
25973;DHT22;13765;51.166;4.466;2023-02-28T17:20:44;5.20;99.90
25973;DHT22;13765;51.166;4.466;2023-02-28T17:23:10;5.30;99.90
25973;DHT22;13765;51.166;4.466;2023-02-28T17:25:38;5.30;99.90
25973;DHT22;13765;51.166;4.466;2023-02-28T17:28:04;5.20;99.90
25973;DHT22;13765;51.166;4.466;2023-02-28T17:30:33;5.20;99.90
25973;DHT22;13765;51.166;4.466;2023-02-28T17:32:59;5.10;99.90
25973;DHT22;13765;51.166;4.466;2023-02-28T17:35:24;5.10;99.90
25973;DHT22;13765;51.166;4.466;2023-02-28T17:37:53;5.10;99.90
25973;DHT22;13765;51.166;4.466;2023-02-28T17:40:23;5.00;99.90
25973;DHT22;13765;51.166;4.466;2023-02-28T17:42:49;4.90;99.90
25973;DHT22;13765;51.166;4.466;2023-02-28T17:45:17;4.80;99.90
25973;DHT22;13765;51.166;4.466;2023-02-28T17:47:47;4.90;99.90
25973;DHT22;13765;51.166;4.466;2023-02-28T17:50:20;4.80;99.90
25973;DHT22;13765;51.166;4.466;2023-02-28T17:52:47;4.70;99.90
25973;DHT22;13765;51.166;4.466;2023-02-28T17:55:16;4.60;99.90
25973;DHT22;13765;51.166;4.466;2023-02-28T17:57:41;4.50;99.90
25973;DHT22;13765;51.166;4.466;2023-02-28T18:00:10;4.40;99.90
25973;DHT22;13765;51.166;4.466;2023-02-28T18:02:38;4.30;99.90
25973;DHT22;13765;51.166;4.466;2023-02-28T18:05:07;4.30;99.90
25973;DHT22;13765;51.166;4.466;2023-02-28T18:07:35;4.20;99.90
25973;DHT22;13765;51.166;4.466;2023-02-28T18:10:01;4.10;99.90
25973;DHT22;13765;51.166;4.466;2023-02-28T18:12:29;4.00;99.90
25973;DHT22;13765;51.166;4.466;2023-02-28T18:14:57;4.00;99.90
25973;DHT22;13765;51.166;4.466;2023-02-28T18:17:23;3.90;99.90
25973;DHT22;13765;51.166;4.466;2023-02-28T18:19:49;3.90;99.90
25973;DHT22;13765;51.166;4.466;2023-02-28T18:22:14;3.80;99.90
25973;DHT22;13765;51.166;4.466;2023-02-28T18:24:42;3.70;99.90
25973;DHT22;13765;51.166;4.466;2023-02-28T18:27:09;3.70;99.90
25973;DHT22;13765;51.166;4.466;2023-02-28T18:29:36;3.60;99.90
25973;DHT22;13765;51.166;4.466;2023-02-28T18:32:05;3.50;99.90
25973;DHT22;13765;51.166;4.466;2023-02-28T18:34:31;3.50;99.90
25973;DHT22;13765;51.166;4.466;2023-02-28T18:36:57;3.40;99.90
25973;DHT22;13765;51.166;4.466;2023-02-28T18:39:25;3.40;99.90
25973;DHT22;13765;51.166;4.466;2023-02-28T18:41:50;3.40;99.90
25973;DHT22;13765;51.166;4.466;2023-02-28T18:44:21;3.40;99.90
25973;DHT22;13765;51.166;4.466;2023-02-28T18:46:47;3.20;99.90
25973;DHT22;13765;51.166;4.466;2023-02-28T18:49:13;3.20;99.90
25973;DHT22;13765;51.166;4.466;2023-02-28T18:51:39;3.10;99.90
25973;DHT22;13765;51.166;4.466;2023-02-28T18:54:09;3.10;99.90
25973;DHT22;13765;51.166;4.466;2023-02-28T18:56:37;3.10;99.90
25973;DHT22;13765;51.166;4.466;2023-02-28T18:59:03;3.10;99.90
25973;DHT22;13765;51.166;4.466;2023-02-28T19:01:31;3.00;99.90
25973;DHT22;13765;51.166;4.466;2023-02-28T19:03:59;3.00;99.90
25973;DHT22;13765;51.166;4.466;2023-02-28T19:06:26;3.00;99.90